sensor_id;sensor_type;location;lat;lon;timestamp;P1;durP1;ratioP1;P2;durP2;ratioP2
51475;SDS011;37554;50.362;7.568;2022-08-01T00:02:06;1.52;;;0.50;;
51475;SDS011;37554;50.362;7.568;2022-08-01T00:04:32;0.80;;;0.47;;
51475;SDS011;37554;50.362;7.568;2022-08-01T00:06:57;0.63;;;0.32;;
51475;SDS011;37554;50.362;7.568;2022-08-01T00:09:23;0.40;;;0.30;;
51475;SDS011;37554;50.362;7.568;2022-08-01T00:11:49;3.90;;;0.45;;
51475;SDS011;37554;50.362;7.568;2022-08-01T00:14:14;0.70;;;0.40;;
51475;SDS011;37554;50.362;7.568;2022-08-01T00:16:40;0.98;;;0.40;;
51475;SDS011;37554;50.362;7.568;2022-08-01T00:19:05;2.28;;;0.43;;
51475;SDS011;37554;50.362;7.568;2022-08-01T00:21:31;1.27;;;0.50;;
51475;SDS011;37554;50.362;7.568;2022-08-01T00:23:57;0.80;;;0.50;;
51475;SDS011;37554;50.362;7.568;2022-08-01T00:26:22;0.70;;;0.32;;
51475;SDS011;37554;50.362;7.568;2022-08-01T00:28:48;0.75;;;0.30;;
51475;SDS011;37554;50.362;7.568;2022-08-01T00:31:13;0.68;;;0.38;;
51475;SDS011;37554;50.362;7.568;2022-08-01T00:33:39;2.00;;;0.40;;
51475;SDS011;37554;50.362;7.568;2022-08-01T00:36:05;0.95;;;0.50;;
51475;SDS011;37554;50.362;7.568;2022-08-01T00:38:30;1.05;;;0.40;;
51475;SDS011;37554;50.362;7.568;2022-08-01T00:40:56;0.57;;;0.45;;
51475;SDS011;37554;50.362;7.568;2022-08-01T00:43:22;0.73;;;0.40;;
51475;SDS011;37554;50.362;7.568;2022-08-01T00:45:47;0.93;;;0.50;;
51475;SDS011;37554;50.362;7.568;2022-08-01T00:48:13;0.85;;;0.40;;
51475;SDS011;37554;50.362;7.568;2022-08-01T00:50:39;0.80;;;0.40;;
51475;SDS011;37554;50.362;7.568;2022-08-01T00:53:04;1.60;;;0.45;;
51475;SDS011;37554;50.362;7.568;2022-08-01T00:55:30;0.70;;;0.30;;
51475;SDS011;37554;50.362;7.568;2022-08-01T00:57:57;0.52;;;0.30;;
51475;SDS011;37554;50.362;7.568;2022-08-01T01:00:24;1.20;;;0.43;;
51475;SDS011;37554;50.362;7.568;2022-08-01T01:02:50;0.80;;;0.38;;
51475;SDS011;37554;50.362;7.568;2022-08-01T01:05:16;1.23;;;0.43;;
51475;SDS011;37554;50.362;7.568;2022-08-01T01:10:40;0.70;;;0.30;;
51475;SDS011;37554;50.362;7.568;2022-08-01T01:13:23;0.57;;;0.30;;
51475;SDS011;37554;50.362;7.568;2022-08-01T01:16:01;0.98;;;0.40;;
51475;SDS011;37554;50.362;7.568;2022-08-01T01:18:54;0.50;;;0.30;;
51475;SDS011;37554;50.362;7.568;2022-08-01T01:21:32;1.42;;;0.30;;
51475;SDS011;37554;50.362;7.568;2022-08-01T01:24:33;0.82;;;0.50;;
51475;SDS011;37554;50.362;7.568;2022-08-01T01:27:17;0.60;;;0.30;;
51475;SDS011;37554;50.362;7.568;2022-08-01T01:29:57;1.48;;;0.40;;
51475;SDS011;37554;50.362;7.568;2022-08-01T01:32:33;0.80;;;0.40;;
51475;SDS011;37554;50.362;7.568;2022-08-01T01:35:27;0.65;;;0.38;;
51475;SDS011;37554;50.362;7.568;2022-08-01T01:37:54;0.73;;;0.50;;
51475;SDS011;37554;50.362;7.568;2022-08-01T01:40:25;0.68;;;0.30;;
51475;SDS011;37554;50.362;7.568;2022-08-01T01:42:52;0.93;;;0.50;;
51475;SDS011;37554;50.362;7.568;2022-08-01T01:45:20;1.75;;;0.40;;
51475;SDS011;37554;50.362;7.568;2022-08-01T01:47:48;0.57;;;0.32;;
51475;SDS011;37554;50.362;7.568;2022-08-01T01:50:15;1.45;;;0.50;;
51475;SDS011;37554;50.362;7.568;2022-08-01T01:52:42;2.63;;;0.40;;
51475;SDS011;37554;50.362;7.568;2022-08-01T01:55:10;2.10;;;0.55;;
51475;SDS011;37554;50.362;7.568;2022-08-01T01:57:38;1.50;;;0.30;;
51475;SDS011;37554;50.362;7.568;2022-08-01T02:00:06;0.50;;;0.30;;
51475;SDS011;37554;50.362;7.568;2022-08-01T02:02:34;1.13;;;0.38;;
51475;SDS011;37554;50.362;7.568;2022-08-01T02:05:05;1.35;;;0.50;;
51475;SDS011;37554;50.362;7.568;2022-08-01T02:07:33;1.67;;;0.30;;
51475;SDS011;37554;50.362;7.568;2022-08-01T02:09:59;0.52;;;0.43;;
51475;SDS011;37554;50.362;7.568;2022-08-01T02:12:26;1.05;;;0.40;;
51475;SDS011;37554;50.362;7.568;2022-08-01T02:14:54;0.43;;;0.20;;
51475;SDS011;37554;50.362;7.568;2022-08-01T02:17:21;1.52;;;0.30;;
51475;SDS011;37554;50.362;7.568;2022-08-01T02:19:49;1.50;;;0.40;;
51475;SDS011;37554;50.362;7.568;2022-08-01T02:22:19;0.77;;;0.30;;
51475;SDS011;37554;50.362;7.568;2022-08-01T02:25:00;0.45;;;0.30;;
51475;SDS011;37554;50.362;7.568;2022-08-01T02:27:40;1.30;;;0.30;;
51475;SDS011;37554;50.362;7.568;2022-08-01T02:30:13;0.25;;;0.22;;
51475;SDS011;37554;50.362;7.568;2022-08-01T02:32:44;0.55;;;0.30;;
51475;SDS011;37554;50.362;7.568;2022-08-01T02:35:16;0.68;;;0.50;;
51475;SDS011;37554;50.362;7.568;2022-08-01T02:37:46;0.30;;;0.28;;
51475;SDS011;37554;50.362;7.568;2022-08-01T02:40:13;0.60;;;0.30;;
51475;SDS011;37554;50.362;7.568;2022-08-01T02:42:44;0.95;;;0.40;;
51475;SDS011;37554;50.362;7.568;2022-08-01T02:45:12;1.08;;;0.38;;
51475;SDS011;37554;50.362;7.568;2022-08-01T02:47:38;0.90;;;0.40;;
51475;SDS011;37554;50.362;7.568;2022-08-01T02:50:06;0.75;;;0.40;;
51475;SDS011;37554;50.362;7.568;2022-08-01T02:52:36;0.73;;;0.30;;
51475;SDS011;37554;50.362;7.568;2022-08-01T02:55:03;0.30;;;0.30;;
51475;SDS011;37554;50.362;7.568;2022-08-01T02:57:30;0.65;;;0.30;;
51475;SDS011;37554;50.362;7.568;2022-08-01T02:59:57;2.17;;;0.38;;
51475;SDS011;37554;50.362;7.568;2022-08-01T03:02:24;0.50;;;0.30;;
51475;SDS011;37554;50.362;7.568;2022-08-01T03:04:51;1.85;;;0.40;;
51475;SDS011;37554;50.362;7.568;2022-08-01T03:07:18;0.60;;;0.38;;
51475;SDS011;37554;50.362;7.568;2022-08-01T03:09:45;1.00;;;0.40;;
51475;SDS011;37554;50.362;7.568;2022-08-01T03:12:14;0.40;;;0.20;;
51475;SDS011;37554;50.362;7.568;2022-08-01T03:14:42;0.70;;;0.40;;
51475;SDS011;37554;50.362;7.568;2022-08-01T03:17:09;0.73;;;0.35;;
51475;SDS011;37554;50.362;7.568;2022-08-01T03:19:36;1.17;;;0.38;;
51475;SDS011;37554;50.362;7.568;2022-08-01T03:22:05;1.30;;;0.35;;
51475;SDS011;37554;50.362;7.568;2022-08-01T03:24:33;2.58;;;0.55;;
51475;SDS011;37554;50.362;7.568;2022-08-01T03:27:00;0.50;;;0.43;;
51475;SDS011;37554;50.362;7.568;2022-08-01T03:29:28;0.52;;;0.20;;
51475;SDS011;37554;50.362;7.568;2022-08-01T03:31:56;0.40;;;0.20;;
51475;SDS011;37554;50.362;7.568;2022-08-01T03:34:23;0.85;;;0.30;;
51475;SDS011;37554;50.362;7.568;2022-08-01T03:36:50;0.65;;;0.20;;
51475;SDS011;37554;50.362;7.568;2022-08-01T03:39:21;0.65;;;0.40;;
51475;SDS011;37554;50.362;7.568;2022-08-01T03:42:01;0.38;;;0.30;;
51475;SDS011;37554;50.362;7.568;2022-08-01T03:44:35;0.90;;;0.45;;
51475;SDS011;37554;50.362;7.568;2022-08-01T03:47:05;0.70;;;0.40;;
51475;SDS011;37554;50.362;7.568;2022-08-01T03:49:35;2.28;;;0.43;;
51475;SDS011;37554;50.362;7.568;2022-08-01T03:52:05;0.75;;;0.30;;
51475;SDS011;37554;50.362;7.568;2022-08-01T03:54:35;0.95;;;0.40;;
51475;SDS011;37554;50.362;7.568;2022-08-01T03:57:03;0.40;;;0.30;;
51475;SDS011;37554;50.362;7.568;2022-08-01T03:59:30;0.60;;;0.30;;
51475;SDS011;37554;50.362;7.568;2022-08-01T04:01:57;1.25;;;0.30;;
51475;SDS011;37554;50.362;7.568;2022-08-01T04:04:23;1.25;;;0.40;;
51475;SDS011;37554;50.362;7.568;2022-08-01T04:06:50;1.20;;;0.40;;
51475;SDS011;37554;50.362;7.568;2022-08-01T04:09:19;0.80;;;0.40;;
51475;SDS011;37554;50.362;7.568;2022-08-01T04:11:45;0.98;;;0.50;;
51475;SDS011;37554;50.362;7.568;2022-08-01T04:14:12;1.75;;;0.63;;
51475;SDS011;37554;50.362;7.568;2022-08-01T04:16:37;1.30;;;0.57;;
51475;SDS011;37554;50.362;7.568;2022-08-01T04:19:03;1.17;;;0.60;;
51475;SDS011;37554;50.362;7.568;2022-08-01T04:21:32;2.60;;;0.70;;
51475;SDS011;37554;50.362;7.568;2022-08-01T04:24:00;1.15;;;0.70;;
51475;SDS011;37554;50.362;7.568;2022-08-01T04:26:30;2.20;;;0.70;;
51475;SDS011;37554;50.362;7.568;2022-08-01T04:28:57;2.78;;;0.75;;
51475;SDS011;37554;50.362;7.568;2022-08-01T04:31:25;0.95;;;0.73;;
51475;SDS011;37554;50.362;7.568;2022-08-01T04:33:52;1.05;;;0.70;;
51475;SDS011;37554;50.362;7.568;2022-08-01T04:36:20;0.95;;;0.85;;
51475;SDS011;37554;50.362;7.568;2022-08-01T04:38:48;1.70;;;0.80;;
51475;SDS011;37554;50.362;7.568;2022-08-01T04:41:19;1.10;;;0.88;;
51475;SDS011;37554;50.362;7.568;2022-08-01T04:43:46;2.45;;;1.10;;
51475;SDS011;37554;50.362;7.568;2022-08-01T04:46:11;4.43;;;0.90;;
51475;SDS011;37554;50.362;7.568;2022-08-01T04:48:39;1.95;;;1.10;;
51475;SDS011;37554;50.362;7.568;2022-08-01T04:51:11;1.65;;;1.08;;
51475;SDS011;37554;50.362;7.568;2022-08-01T04:53:41;1.67;;;1.08;;
51475;SDS011;37554;50.362;7.568;2022-08-01T04:56:08;2.22;;;1.02;;
51475;SDS011;37554;50.362;7.568;2022-08-01T04:58:33;1.50;;;1.05;;
51475;SDS011;37554;50.362;7.568;2022-08-01T05:00:59;1.67;;;0.90;;
51475;SDS011;37554;50.362;7.568;2022-08-01T05:03:25;2.15;;;1.17;;
51475;SDS011;37554;50.362;7.568;2022-08-01T05:05:50;1.95;;;1.00;;
51475;SDS011;37554;50.362;7.568;2022-08-01T05:08:16;2.17;;;1.10;;
51475;SDS011;37554;50.362;7.568;2022-08-01T05:10:42;1.65;;;0.98;;
51475;SDS011;37554;50.362;7.568;2022-08-01T05:13:07;1.55;;;1.27;;
51475;SDS011;37554;50.362;7.568;2022-08-01T05:15:36;1.40;;;1.05;;
51475;SDS011;37554;50.362;7.568;2022-08-01T05:18:02;2.35;;;1.00;;
51475;SDS011;37554;50.362;7.568;2022-08-01T05:20:28;3.58;;;1.10;;
51475;SDS011;37554;50.362;7.568;2022-08-01T05:22:54;2.35;;;1.30;;
51475;SDS011;37554;50.362;7.568;2022-08-01T05:25:19;1.17;;;1.00;;
51475;SDS011;37554;50.362;7.568;2022-08-01T05:27:45;1.30;;;1.05;;
51475;SDS011;37554;50.362;7.568;2022-08-01T05:30:10;1.25;;;1.00;;
51475;SDS011;37554;50.362;7.568;2022-08-01T05:32:36;2.15;;;1.27;;
51475;SDS011;37554;50.362;7.568;2022-08-01T05:35:03;2.00;;;1.15;;
51475;SDS011;37554;50.362;7.568;2022-08-01T05:37:29;1.45;;;1.05;;
51475;SDS011;37554;50.362;7.568;2022-08-01T05:39:55;1.05;;;1.00;;
51475;SDS011;37554;50.362;7.568;2022-08-01T05:42:20;2.67;;;1.33;;
51475;SDS011;37554;50.362;7.568;2022-08-01T05:44:46;1.38;;;0.73;;
51475;SDS011;37554;50.362;7.568;2022-08-01T05:47:12;2.42;;;0.80;;
51475;SDS011;37554;50.362;7.568;2022-08-01T05:49:38;0.73;;;0.55;;
51475;SDS011;37554;50.362;7.568;2022-08-01T05:52:04;1.13;;;0.70;;
51475;SDS011;37554;50.362;7.568;2022-08-01T05:54:30;3.03;;;0.80;;
51475;SDS011;37554;50.362;7.568;2022-08-01T05:56:56;1.70;;;0.57;;
51475;SDS011;37554;50.362;7.568;2022-08-01T05:59:24;2.05;;;0.70;;
51475;SDS011;37554;50.362;7.568;2022-08-01T06:01:50;2.15;;;0.70;;
51475;SDS011;37554;50.362;7.568;2022-08-01T06:04:16;3.90;;;0.90;;
51475;SDS011;37554;50.362;7.568;2022-08-01T06:06:41;3.22;;;0.80;;
51475;SDS011;37554;50.362;7.568;2022-08-01T06:09:07;1.27;;;0.80;;
51475;SDS011;37554;50.362;7.568;2022-08-01T06:11:33;2.10;;;1.05;;
51475;SDS011;37554;50.362;7.568;2022-08-01T06:13:58;2.00;;;0.93;;
51475;SDS011;37554;50.362;7.568;2022-08-01T06:16:24;3.30;;;1.08;;
51475;SDS011;37554;50.362;7.568;2022-08-01T06:18:50;2.45;;;1.00;;
51475;SDS011;37554;50.362;7.568;2022-08-01T06:21:15;1.45;;;1.05;;
51475;SDS011;37554;50.362;7.568;2022-08-01T06:23:41;4.72;;;1.20;;
51475;SDS011;37554;50.362;7.568;2022-08-01T06:26:07;1.88;;;1.10;;
51475;SDS011;37554;50.362;7.568;2022-08-01T06:28:33;4.07;;;1.30;;
51475;SDS011;37554;50.362;7.568;2022-08-01T06:30:59;2.35;;;1.40;;
51475;SDS011;37554;50.362;7.568;2022-08-01T06:33:25;4.57;;;1.48;;
51475;SDS011;37554;50.362;7.568;2022-08-01T06:35:51;4.20;;;1.60;;
51475;SDS011;37554;50.362;7.568;2022-08-01T06:38:17;3.22;;;1.20;;
51475;SDS011;37554;50.362;7.568;2022-08-01T06:40:43;3.58;;;1.50;;
51475;SDS011;37554;50.362;7.568;2022-08-01T06:43:08;5.85;;;1.95;;
51475;SDS011;37554;50.362;7.568;2022-08-01T06:45:36;4.05;;;2.30;;
51475;SDS011;37554;50.362;7.568;2022-08-01T06:48:03;4.57;;;2.83;;
51475;SDS011;37554;50.362;7.568;2022-08-01T06:50:29;6.55;;;2.22;;
51475;SDS011;37554;50.362;7.568;2022-08-01T06:52:55;4.15;;;2.65;;
51475;SDS011;37554;50.362;7.568;2022-08-01T06:55:20;5.05;;;2.63;;
51475;SDS011;37554;50.362;7.568;2022-08-01T06:57:47;3.25;;;2.40;;
51475;SDS011;37554;50.362;7.568;2022-08-01T07:00:17;2.88;;;2.63;;
51475;SDS011;37554;50.362;7.568;2022-08-01T07:02:47;3.22;;;2.92;;
51475;SDS011;37554;50.362;7.568;2022-08-01T07:05:13;5.88;;;2.45;;
51475;SDS011;37554;50.362;7.568;2022-08-01T07:07:39;6.05;;;2.58;;
51475;SDS011;37554;50.362;7.568;2022-08-01T07:10:05;5.85;;;2.53;;
51475;SDS011;37554;50.362;7.568;2022-08-01T07:12:31;3.60;;;2.60;;
51475;SDS011;37554;50.362;7.568;2022-08-01T07:14:58;4.53;;;2.53;;
51475;SDS011;37554;50.362;7.568;2022-08-01T07:17:23;2.55;;;2.35;;
51475;SDS011;37554;50.362;7.568;2022-08-01T07:19:49;3.83;;;2.92;;
51475;SDS011;37554;50.362;7.568;2022-08-01T07:22:14;3.92;;;2.50;;
51475;SDS011;37554;50.362;7.568;2022-08-01T07:24:41;4.45;;;2.63;;
51475;SDS011;37554;50.362;7.568;2022-08-01T07:27:07;3.75;;;2.80;;
51475;SDS011;37554;50.362;7.568;2022-08-01T07:29:32;2.70;;;2.50;;
51475;SDS011;37554;50.362;7.568;2022-08-01T07:31:58;2.58;;;2.38;;
51475;SDS011;37554;50.362;7.568;2022-08-01T07:34:24;3.00;;;2.70;;
51475;SDS011;37554;50.362;7.568;2022-08-01T07:36:51;4.15;;;2.30;;
51475;SDS011;37554;50.362;7.568;2022-08-01T07:39:17;4.68;;;2.70;;
51475;SDS011;37554;50.362;7.568;2022-08-01T07:41:43;2.67;;;2.47;;
51475;SDS011;37554;50.362;7.568;2022-08-01T07:44:09;5.18;;;2.67;;
51475;SDS011;37554;50.362;7.568;2022-08-01T07:46:35;4.70;;;2.60;;
51475;SDS011;37554;50.362;7.568;2022-08-01T07:49:00;3.47;;;2.38;;
51475;SDS011;37554;50.362;7.568;2022-08-01T07:51:26;3.35;;;2.22;;
51475;SDS011;37554;50.362;7.568;2022-08-01T07:53:52;5.78;;;2.67;;
51475;SDS011;37554;50.362;7.568;2022-08-01T07:56:17;4.18;;;2.10;;
51475;SDS011;37554;50.362;7.568;2022-08-01T07:58:43;3.05;;;2.40;;
51475;SDS011;37554;50.362;7.568;2022-08-01T08:01:10;3.03;;;2.40;;
51475;SDS011;37554;50.362;7.568;2022-08-01T08:03:35;3.55;;;2.10;;
51475;SDS011;37554;50.362;7.568;2022-08-01T08:06:01;4.60;;;2.47;;
51475;SDS011;37554;50.362;7.568;2022-08-01T08:08:27;4.07;;;2.67;;
51475;SDS011;37554;50.362;7.568;2022-08-01T08:10:53;4.93;;;2.60;;
51475;SDS011;37554;50.362;7.568;2022-08-01T08:13:19;2.75;;;2.45;;
51475;SDS011;37554;50.362;7.568;2022-08-01T08:15:45;3.05;;;2.15;;
51475;SDS011;37554;50.362;7.568;2022-08-01T08:18:10;4.00;;;2.60;;
51475;SDS011;37554;50.362;7.568;2022-08-01T08:20:36;3.20;;;2.28;;
51475;SDS011;37554;50.362;7.568;2022-08-01T08:23:02;2.97;;;1.95;;
51475;SDS011;37554;50.362;7.568;2022-08-01T08:25:47;3.03;;;2.08;;
51475;SDS011;37554;50.362;7.568;2022-08-01T08:28:13;3.92;;;2.60;;
51475;SDS011;37554;50.362;7.568;2022-08-01T08:30:38;4.05;;;2.30;;
51475;SDS011;37554;50.362;7.568;2022-08-01T08:33:04;6.07;;;2.67;;
51475;SDS011;37554;50.362;7.568;2022-08-01T08:35:29;4.40;;;2.17;;
51475;SDS011;37554;50.362;7.568;2022-08-01T08:37:55;3.35;;;2.33;;
51475;SDS011;37554;50.362;7.568;2022-08-01T08:40:21;15.68;;;2.75;;
51475;SDS011;37554;50.362;7.568;2022-08-01T08:42:54;4.53;;;2.78;;
51475;SDS011;37554;50.362;7.568;2022-08-01T08:45:20;5.25;;;2.25;;
51475;SDS011;37554;50.362;7.568;2022-08-01T08:47:46;3.25;;;2.35;;
51475;SDS011;37554;50.362;7.568;2022-08-01T08:50:14;5.65;;;2.60;;
51475;SDS011;37554;50.362;7.568;2022-08-01T08:52:40;3.38;;;2.38;;
51475;SDS011;37554;50.362;7.568;2022-08-01T08:55:08;3.60;;;2.70;;
51475;SDS011;37554;50.362;7.568;2022-08-01T08:57:36;3.28;;;2.30;;
51475;SDS011;37554;50.362;7.568;2022-08-01T09:00:05;4.68;;;2.70;;
51475;SDS011;37554;50.362;7.568;2022-08-01T09:02:31;6.18;;;2.92;;
51475;SDS011;37554;50.362;7.568;2022-08-01T09:04:56;4.10;;;2.60;;
51475;SDS011;37554;50.362;7.568;2022-08-01T09:07:23;4.57;;;2.38;;
51475;SDS011;37554;50.362;7.568;2022-08-01T09:09:50;5.50;;;2.58;;
51475;SDS011;37554;50.362;7.568;2022-08-01T09:12:17;4.85;;;2.50;;
51475;SDS011;37554;50.362;7.568;2022-08-01T09:14:44;7.13;;;2.42;;
51475;SDS011;37554;50.362;7.568;2022-08-01T09:17:10;6.00;;;2.50;;
51475;SDS011;37554;50.362;7.568;2022-08-01T09:19:58;3.33;;;2.70;;
51475;SDS011;37554;50.362;7.568;2022-08-01T09:22:24;4.60;;;2.38;;
51475;SDS011;37554;50.362;7.568;2022-08-01T09:25:00;3.80;;;2.50;;
51475;SDS011;37554;50.362;7.568;2022-08-01T09:27:31;6.35;;;2.22;;
51475;SDS011;37554;50.362;7.568;2022-08-01T09:32:55;3.58;;;2.40;;
51475;SDS011;37554;50.362;7.568;2022-08-01T09:35:26;7.70;;;2.55;;
51475;SDS011;37554;50.362;7.568;2022-08-01T09:38:12;5.78;;;2.30;;
51475;SDS011;37554;50.362;7.568;2022-08-01T09:40:50;3.90;;;2.50;;
51475;SDS011;37554;50.362;7.568;2022-08-01T09:43:24;3.03;;;2.72;;
51475;SDS011;37554;50.362;7.568;2022-08-01T09:45:51;5.28;;;2.60;;
51475;SDS011;37554;50.362;7.568;2022-08-01T09:48:17;2.92;;;2.63;;
51475;SDS011;37554;50.362;7.568;2022-08-01T09:50:46;4.88;;;2.40;;
51475;SDS011;37554;50.362;7.568;2022-08-01T09:53:15;4.25;;;2.45;;
51475;SDS011;37554;50.362;7.568;2022-08-01T09:55:41;3.10;;;2.50;;
51475;SDS011;37554;50.362;7.568;2022-08-01T09:58:07;2.75;;;2.35;;
51475;SDS011;37554;50.362;7.568;2022-08-01T10:00:36;5.25;;;2.40;;
51475;SDS011;37554;50.362;7.568;2022-08-01T10:03:21;3.38;;;2.45;;
51475;SDS011;37554;50.362;7.568;2022-08-01T10:05:48;2.38;;;2.20;;
51475;SDS011;37554;50.362;7.568;2022-08-01T10:08:15;2.47;;;2.28;;
51475;SDS011;37554;50.362;7.568;2022-08-01T10:10:41;3.10;;;2.35;;
51475;SDS011;37554;50.362;7.568;2022-08-01T10:13:08;3.03;;;2.22;;
51475;SDS011;37554;50.362;7.568;2022-08-01T10:15:35;2.40;;;2.13;;
51475;SDS011;37554;50.362;7.568;2022-08-01T10:18:01;2.95;;;2.10;;
51475;SDS011;37554;50.362;7.568;2022-08-01T10:20:30;3.78;;;2.50;;
51475;SDS011;37554;50.362;7.568;2022-08-01T10:23:03;2.90;;;2.38;;
51475;SDS011;37554;50.362;7.568;2022-08-01T10:25:33;8.00;;;2.10;;
51475;SDS011;37554;50.362;7.568;2022-08-01T10:28:01;3.83;;;2.15;;
51475;SDS011;37554;50.362;7.568;2022-08-01T10:30:36;4.15;;;2.20;;
51475;SDS011;37554;50.362;7.568;2022-08-01T10:33:03;4.28;;;2.08;;
51475;SDS011;37554;50.362;7.568;2022-08-01T10:35:29;2.30;;;2.10;;
51475;SDS011;37554;50.362;7.568;2022-08-01T10:37:56;2.95;;;2.10;;
51475;SDS011;37554;50.362;7.568;2022-08-01T10:40:23;2.28;;;1.80;;
51475;SDS011;37554;50.362;7.568;2022-08-01T10:42:49;5.03;;;2.20;;
51475;SDS011;37554;50.362;7.568;2022-08-01T10:45:16;2.40;;;2.10;;
51475;SDS011;37554;50.362;7.568;2022-08-01T10:47:44;2.80;;;2.38;;
51475;SDS011;37554;50.362;7.568;2022-08-01T10:52:40;3.63;;;2.47;;
51475;SDS011;37554;50.362;7.568;2022-08-01T10:55:07;2.92;;;2.30;;
51475;SDS011;37554;50.362;7.568;2022-08-01T10:57:45;3.75;;;2.00;;
51475;SDS011;37554;50.362;7.568;2022-08-01T11:00:19;4.28;;;1.70;;
51475;SDS011;37554;50.362;7.568;2022-08-01T11:03:00;3.17;;;1.50;;
51475;SDS011;37554;50.362;7.568;2022-08-01T11:05:30;2.58;;;1.70;;
51475;SDS011;37554;50.362;7.568;2022-08-01T11:07:58;3.67;;;1.58;;
51475;SDS011;37554;50.362;7.568;2022-08-01T11:10:41;2.05;;;1.80;;
51475;SDS011;37554;50.362;7.568;2022-08-01T11:13:10;4.95;;;2.08;;
51475;SDS011;37554;50.362;7.568;2022-08-01T11:15:36;4.55;;;2.30;;
51475;SDS011;37554;50.362;7.568;2022-08-01T11:20:56;5.88;;;2.42;;
51475;SDS011;37554;50.362;7.568;2022-08-01T11:23:24;3.88;;;2.42;;
51475;SDS011;37554;50.362;7.568;2022-08-01T11:28:19;3.45;;;2.70;;
51475;SDS011;37554;50.362;7.568;2022-08-01T11:30:52;4.38;;;2.30;;
51475;SDS011;37554;50.362;7.568;2022-08-01T11:34:04;3.40;;;2.63;;
51475;SDS011;37554;50.362;7.568;2022-08-01T11:38:41;5.40;;;2.28;;
51475;SDS011;37554;50.362;7.568;2022-08-01T11:41:13;2.67;;;2.47;;
51475;SDS011;37554;50.362;7.568;2022-08-01T11:43:57;4.78;;;2.78;;
51475;SDS011;37554;50.362;7.568;2022-08-01T11:49:34;2.83;;;2.13;;
51475;SDS011;37554;50.362;7.568;2022-08-01T11:52:22;3.10;;;2.80;;
51475;SDS011;37554;50.362;7.568;2022-08-01T11:54:55;4.93;;;2.70;;
51475;SDS011;37554;50.362;7.568;2022-08-01T11:57:32;2.58;;;2.38;;
51475;SDS011;37554;50.362;7.568;2022-08-01T12:00:12;5.72;;;2.10;;
51475;SDS011;37554;50.362;7.568;2022-08-01T12:02:40;1.77;;;1.67;;
51475;SDS011;37554;50.362;7.568;2022-08-01T12:05:10;1.88;;;1.75;;
51475;SDS011;37554;50.362;7.568;2022-08-01T12:07:41;1.75;;;1.65;;
51475;SDS011;37554;50.362;7.568;2022-08-01T12:10:15;2.15;;;1.80;;
51475;SDS011;37554;50.362;7.568;2022-08-01T12:15:09;2.30;;;2.00;;
51475;SDS011;37554;50.362;7.568;2022-08-01T12:17:36;1.98;;;1.77;;
51475;SDS011;37554;50.362;7.568;2022-08-01T12:20:04;4.40;;;2.03;;
51475;SDS011;37554;50.362;7.568;2022-08-01T12:22:31;3.63;;;1.80;;
51475;SDS011;37554;50.362;7.568;2022-08-01T12:27:37;3.08;;;1.98;;
51475;SDS011;37554;50.362;7.568;2022-08-01T12:30:10;2.10;;;1.92;;
51475;SDS011;37554;50.362;7.568;2022-08-01T12:32:41;4.72;;;1.90;;
51475;SDS011;37554;50.362;7.568;2022-08-01T12:35:10;5.07;;;2.03;;
51475;SDS011;37554;50.362;7.568;2022-08-01T12:37:41;4.20;;;1.98;;
51475;SDS011;37554;50.362;7.568;2022-08-01T12:42:41;2.15;;;1.95;;
51475;SDS011;37554;50.362;7.568;2022-08-01T12:45:09;2.38;;;2.03;;
51475;SDS011;37554;50.362;7.568;2022-08-01T12:47:37;4.35;;;1.88;;
51475;SDS011;37554;50.362;7.568;2022-08-01T12:50:17;3.30;;;1.95;;
51475;SDS011;37554;50.362;7.568;2022-08-01T12:52:45;3.38;;;2.10;;
51475;SDS011;37554;50.362;7.568;2022-08-01T12:55:21;8.35;;;2.40;;
51475;SDS011;37554;50.362;7.568;2022-08-01T12:57:50;3.40;;;1.92;;
51475;SDS011;37554;50.362;7.568;2022-08-01T13:00:28;5.53;;;1.73;;
51475;SDS011;37554;50.362;7.568;2022-08-01T13:03:02;6.40;;;1.70;;
51475;SDS011;37554;50.362;7.568;2022-08-01T13:08:13;3.35;;;2.08;;
51475;SDS011;37554;50.362;7.568;2022-08-01T13:10:40;3.22;;;2.20;;
51475;SDS011;37554;50.362;7.568;2022-08-01T13:13:07;2.88;;;2.40;;
51475;SDS011;37554;50.362;7.568;2022-08-01T13:15:35;2.50;;;2.28;;
51475;SDS011;37554;50.362;7.568;2022-08-01T13:18:27;2.25;;;1.98;;
51475;SDS011;37554;50.362;7.568;2022-08-01T13:21:10;6.38;;;2.33;;
51475;SDS011;37554;50.362;7.568;2022-08-01T13:24:01;5.13;;;1.60;;
51475;SDS011;37554;50.362;7.568;2022-08-01T14:02:54;3.47;;;2.00;;
51475;SDS011;37554;50.362;7.568;2022-08-01T14:05:20;2.20;;;2.00;;
51475;SDS011;37554;50.362;7.568;2022-08-01T14:07:45;2.45;;;2.20;;
51475;SDS011;37554;50.362;7.568;2022-08-01T14:10:11;2.33;;;2.00;;
51475;SDS011;37554;50.362;7.568;2022-08-01T14:12:37;2.35;;;2.15;;
51475;SDS011;37554;50.362;7.568;2022-08-01T14:15:02;2.30;;;1.88;;
51475;SDS011;37554;50.362;7.568;2022-08-01T14:17:28;2.65;;;2.05;;
51475;SDS011;37554;50.362;7.568;2022-08-01T14:19:54;2.72;;;1.90;;
51475;SDS011;37554;50.362;7.568;2022-08-01T14:22:21;2.35;;;1.83;;
51475;SDS011;37554;50.362;7.568;2022-08-01T14:24:47;2.25;;;1.80;;
51475;SDS011;37554;50.362;7.568;2022-08-01T14:27:14;6.57;;;2.10;;
51475;SDS011;37554;50.362;7.568;2022-08-01T14:29:39;4.07;;;2.28;;
51475;SDS011;37554;50.362;7.568;2022-08-01T14:32:05;6.43;;;1.98;;
51475;SDS011;37554;50.362;7.568;2022-08-01T14:34:31;7.63;;;2.00;;
51475;SDS011;37554;50.362;7.568;2022-08-01T14:36:56;5.70;;;1.95;;
51475;SDS011;37554;50.362;7.568;2022-08-01T14:39:22;3.15;;;2.30;;
51475;SDS011;37554;50.362;7.568;2022-08-01T14:41:47;3.35;;;2.20;;
51475;SDS011;37554;50.362;7.568;2022-08-01T14:44:13;3.58;;;2.58;;
51475;SDS011;37554;50.362;7.568;2022-08-01T14:46:38;2.90;;;2.28;;
51475;SDS011;37554;50.362;7.568;2022-08-01T14:49:06;4.18;;;2.28;;
51475;SDS011;37554;50.362;7.568;2022-08-01T14:51:31;3.13;;;2.28;;
51475;SDS011;37554;50.362;7.568;2022-08-01T14:53:59;2.50;;;2.30;;
51475;SDS011;37554;50.362;7.568;2022-08-01T14:56:25;4.07;;;2.60;;
51475;SDS011;37554;50.362;7.568;2022-08-01T14:58:50;5.88;;;2.22;;
51475;SDS011;37554;50.362;7.568;2022-08-01T15:01:16;6.25;;;2.30;;
51475;SDS011;37554;50.362;7.568;2022-08-01T15:03:42;7.03;;;2.47;;
51475;SDS011;37554;50.362;7.568;2022-08-01T15:06:08;6.25;;;2.67;;
51475;SDS011;37554;50.362;7.568;2022-08-01T15:08:36;3.85;;;2.45;;
51475;SDS011;37554;50.362;7.568;2022-08-01T15:11:02;7.55;;;2.83;;
51475;SDS011;37554;50.362;7.568;2022-08-01T15:13:27;5.20;;;2.60;;
51475;SDS011;37554;50.362;7.568;2022-08-01T15:15:53;4.72;;;2.17;;
51475;SDS011;37554;50.362;7.568;2022-08-01T15:18:19;6.30;;;1.95;;
51475;SDS011;37554;50.362;7.568;2022-08-01T15:20:44;5.68;;;1.98;;
51475;SDS011;37554;50.362;7.568;2022-08-01T15:23:10;5.57;;;1.90;;
51475;SDS011;37554;50.362;7.568;2022-08-01T15:25:36;2.95;;;2.10;;
51475;SDS011;37554;50.362;7.568;2022-08-01T15:28:01;1.92;;;1.83;;
51475;SDS011;37554;50.362;7.568;2022-08-01T15:30:27;1.63;;;1.52;;
51475;SDS011;37554;50.362;7.568;2022-08-01T15:32:53;2.58;;;1.70;;
51475;SDS011;37554;50.362;7.568;2022-08-01T15:35:19;2.50;;;1.70;;
51475;SDS011;37554;50.362;7.568;2022-08-01T15:37:44;5.57;;;1.70;;
51475;SDS011;37554;50.362;7.568;2022-08-01T15:40:10;4.03;;;1.70;;
51475;SDS011;37554;50.362;7.568;2022-08-01T15:42:36;6.00;;;1.70;;
51475;SDS011;37554;50.362;7.568;2022-08-01T15:45:02;4.05;;;1.90;;
51475;SDS011;37554;50.362;7.568;2022-08-01T15:47:29;3.33;;;2.00;;
51475;SDS011;37554;50.362;7.568;2022-08-01T15:49:54;4.55;;;1.75;;
51475;SDS011;37554;50.362;7.568;2022-08-01T15:52:24;4.85;;;1.55;;
51475;SDS011;37554;50.362;7.568;2022-08-01T15:54:50;2.70;;;1.60;;
51475;SDS011;37554;50.362;7.568;2022-08-01T15:57:16;2.97;;;1.80;;
51475;SDS011;37554;50.362;7.568;2022-08-01T15:59:42;1.83;;;1.60;;
51475;SDS011;37554;50.362;7.568;2022-08-01T16:02:07;2.65;;;1.40;;